White Oak, PA (15131)

4:33 PM EDT on September 02, 2015 (GMT -0400)
White Oak, PA 15131-1531 | | Change Station
CLOSE
Current Station
Personal Weather Station
Location: White Oak, PA
Elevation: 1076 ft
Nearby Weather Stations

Elev 1076 ft 40.35 °N, 79.82 °W | Updated 17 seconds ago

Clear
Clear
89.1 °F
Feels Like 90 °F
N
0.2
Wind Variable Wind from West
Gusts 2.5 mph

Today
High -- | Low -- °F
--% Chance of Precip.
Yesterday
High -- | Low -- °F
Precip. -- in
6:47 AM 7:49 PM
Waning Gibbous, 77% visible
Pressure 30.00 in
Visibility 10.0 miles
Clouds Scattered Clouds 6000 ft
Heat Index 90 °F
Dew Point 62 °F
Humidity 41%
Rainfall 0.45 in
Snow Depth Not available.
UV 5 out of 12
Pollen 10.00 out of 12
Air Quality Not available.
Flu Activity Not available.
METAR KAGC 021953Z VRB03KT 10SM SCT060 30/14 A3002 RMK AO2 SLP158 T03000144
Pressure 30.00 in
Visibility 10.0 miles
Clouds Scattered Clouds 6000 ft
Heat Index 90 °F
Dew Point 62 °F
Humidity 41%
Rainfall 0.45 in
Snow Depth Not available.
UV 5 out of 12
Pollen 10.00 out of 12
Air Quality Not available.
Flu Activity Not available.
METAR KAGC 021953Z VRB03KT 10SM SCT060 30/14 A3002 RMK AO2 SLP158 T03000144

10-Day Weather Forecast

×

Almanac

Astronomy

Sep. 02, 2015 Rise Set
Actual Time
Civil Twilight
Nautical Twilight
Astronomical Twilight
Moon
Length of Visible Light
Length of Day
Tomorrow will be .
, % of the Moon is Illuminated

Today's Extremes

State Highs State Lows

Community

WunderPhotos

Upload Photos

1,851,806 photos uploaded!

WunderBlogs® & News

Nearby

Air Quality

  Air Quality AQ Index Pollutant
Not available.

Snow Depth

Station Depth Elevation

Earthquake Activity

City Distance Mag. Time & Date
Minimum magnitude displayed is 2.5.

Coastal Water Temperatures

Place Temperature

Stations

Nearby Weather Stations

Station Location Temp. Windchill Dew Point Humidity Wind Precip. Elev Updated Type